Time;durP1;ratioP1;P1;durP2;ratioP2;P2;SDS_P1;SDS_P2;PMS_P1;PMS_P2;Temp;Humidity;BMP_temperature;BMP_pressure;BME280_temperature;BME280_humidity;BME280_pressure;Samples;Min_cycle;Max_cycle;Signal;HPM_P1;HPM_P2
2024/02/01 00:00:07;;;;;;;7.47;4.70;;;;;;;;;;685720;28;2411;-68
2024/02/01 00:00:29;;;;;;;8.13;5.00;;;;;;;;;;687621;28;1019;-66
2024/02/01 00:00:50;;;;;;;7.60;4.80;;;;;;;;;;686662;28;4346;-66
2024/02/01 00:01:10;;;;;;;8.67;4.80;;;;;;;;;;685285;28;1893;-67
2024/02/01 00:01:31;;;;;;;8.07;4.80;;;;;;;;;;686916;28;1754;-67
2024/02/01 00:01:51;;;;;;;9.30;5.23;;;;;;;;;;687522;28;1393;-66
2024/02/01 00:02:11;;;;;;;8.67;5.13;;;;;;;;;;685705;28;4691;-67
2024/02/01 00:02:31;;;;;;;8.40;4.93;;;;;;;;;;687399;28;1012;-67
2024/02/01 00:02:52;;;;;;;7.33;5.10;;;;;;;;;;687640;28;1391;-67
2024/02/01 00:03:12;;;;;;;7.60;4.93;;;;;;;;;;683396;28;1835;-67
2024/02/01 00:03:32;;;;;;;9.13;5.20;;;;;;;;;;684824;28;957;-65
2024/02/01 00:03:53;;;;;;;8.83;5.10;;;;;;;;;;683589;28;4504;-66
2024/02/01 00:04:13;;;;;;;8.25;4.82;;;;;;;;;;682563;28;2214;-67
2024/02/01 00:04:33;;;;;;;8.50;5.00;;;;;;;;;;684597;28;1248;-65
2024/02/01 00:04:54;;;;;;;8.33;5.07;;;;;;;;;;684419;28;818;-65
2024/02/01 00:05:15;;;;;;;7.90;5.28;;;;;;;;;;685571;28;1857;-66
2024/02/01 00:05:35;;;;;;;8.73;5.20;;;;;;;;;;687451;28;1228;-66
2024/02/01 00:05:56;;;;;;;8.90;5.22;;;;;;;;;;686438;28;2374;-68
2024/02/01 00:06:16;;;;;;;8.23;5.30;;;;;;;;;;687128;28;1458;-65
2024/02/01 00:06:38;;;;;;;7.57;5.25;;;;;;;;;;686677;28;857;-66
2024/02/01 00:06:59;;;;;;;8.65;5.28;;;;;;;;;;686303;28;4260;-68
2024/02/01 00:07:20;;;;;;;8.27;4.90;;;;;;;;;;689661;28;801;-66
2024/02/01 00:07:41;;;;;;;7.97;5.20;;;;;;;;;;689898;28;833;-65
2024/02/01 00:08:02;;;;;;;7.75;5.40;;;;;;;;;;686495;28;2187;-65
2024/02/01 00:08:23;;;;;;;8.20;5.53;;;;;;;;;;687334;28;869;-67
2024/02/01 00:08:44;;;;;;;8.15;5.60;;;;;;;;;;687443;28;1436;-67
2024/02/01 00:09:05;;;;;;;8.38;5.22;;;;;;;;;;686201;28;2350;-66
2024/02/01 00:09:26;;;;;;;8.52;5.20;;;;;;;;;;687120;28;1108;-66
2024/02/01 00:09:48;;;;;;;10.40;5.90;;;;;;;;;;687206;28;4999;-66
2024/02/01 00:10:09;;;;;;;9.10;5.57;;;;;;;;;;686462;28;4671;-67
2024/02/01 00:10:29;;;;;;;8.75;5.30;;;;;;;;;;687664;28;1002;-65
2024/02/01 00:10:50;;;;;;;8.93;5.37;;;;;;;;;;687821;28;839;-65
2024/02/01 00:11:10;;;;;;;7.30;5.20;;;;;;;;;;689741;28;1771;-67
2024/02/01 00:11:30;;;;;;;7.80;5.07;;;;;;;;;;688492;28;1443;-66
2024/02/01 00:11:51;;;;;;;8.85;5.32;;;;;;;;;;689333;28;1378;-67
2024/02/01 00:12:11;;;;;;;8.23;5.07;;;;;;;;;;688186;28;1669;-65
2024/02/01 00:12:31;;;;;;;8.47;5.50;;;;;;;;;;689907;28;908;-65
2024/02/01 00:12:52;;;;;;;8.30;5.32;;;;;;;;;;688968;28;4296;-67
2024/02/01 00:13:12;;;;;;;8.67;5.20;;;;;;;;;;685742;28;2348;-66
2024/02/01 00:13:32;;;;;;;7.43;5.40;;;;;;;;;;685389;28;1344;-66
2024/02/01 00:13:53;;;;;;;7.78;5.40;;;;;;;;;;685114;28;936;-66
2024/02/01 00:14:13;;;;;;;8.30;5.33;;;;;;;;;;685071;28;2159;-68
2024/02/01 00:14:33;;;;;;;8.57;5.27;;;;;;;;;;682466;28;1399;-65
2024/02/01 00:14:54;;;;;;;10.40;5.43;;;;;;;;;;682103;28;945;-65
2024/02/01 00:15:14;;;;;;;9.87;6.00;;;;;;;;;;678893;28;1832;-67
2024/02/01 00:15:34;;;;;;;8.85;5.38;;;;;;;;;;684217;28;806;-66
2024/02/01 00:15:55;;;;;;;7.63;4.90;;;;;;;;;;683599;28;4420;-67
2024/02/01 00:16:21;;;;;;;7.88;4.85;;;;;;;;;;680691;28;1985;-67
2024/02/01 00:16:42;;;;;;;7.65;5.18;;;;;;;;;;684209;28;1194;-66
2024/02/01 00:17:02;;;;;;;7.60;5.30;;;;;;;;;;681694;28;1945;-66
2024/02/01 00:17:22;;;;;;;8.33;5.40;;;;;;;;;;684896;28;870;-67
2024/02/01 00:17:43;;;;;;;8.87;5.47;;;;;;;;;;684420;28;972;-67
2024/02/01 00:18:03;;;;;;;9.70;5.30;;;;;;;;;;683944;28;2167;-65
2024/02/01 00:18:24;;;;;;;8.98;5.75;;;;;;;;;;686551;28;1551;-65
2024/02/01 00:18:47;;;;;;;8.53;5.33;;;;;;;;;;687046;28;877;-67
2024/02/01 00:19:07;;;;;;;8.48;4.95;;;;;;;;;;684359;28;4858;-68
2024/02/01 00:19:27;;;;;;;8.17;5.27;;;;;;;;;;687396;28;897;-65
2024/02/01 00:19:48;;;;;;;8.52;5.72;;;;;;;;;;684108;28;1464;-66
2024/02/01 00:20:08;;;;;;;8.10;5.43;;;;;;;;;;682538;28;1643;-67
2024/02/01 00:20:28;;;;;;;9.68;5.57;;;;;;;;;;684196;28;933;-67
2024/02/01 00:20:49;;;;;;;9.03;5.73;;;;;;;;;;684656;28;779;-64
2024/02/01 00:21:09;;;;;;;9.33;5.30;;;;;;;;;;685175;28;2168;-66
2024/02/01 00:21:29;;;;;;;10.85;5.47;;;;;;;;;;683331;28;1298;-66
2024/02/01 00:21:50;;;;;;;8.50;5.53;;;;;;;;;;685844;28;4663;-66
2024/02/01 00:22:10;;;;;;;9.27;5.45;;;;;;;;;;685650;28;1904;-65
2024/02/01 00:22:30;;;;;;;9.93;5.13;;;;;;;;;;686909;28;897;-67
2024/02/01 00:22:51;;;;;;;9.33;5.37;;;;;;;;;;687154;28;1217;-66
2024/02/01 00:23:11;;;;;;;8.32;5.28;;;;;;;;;;684475;28;1445;-67
2024/02/01 00:23:31;;;;;;;7.90;5.30;;;;;;;;;;687379;28;766;-66
2024/02/01 00:23:52;;;;;;;7.65;5.15;;;;;;;;;;686208;28;1234;-66
2024/02/01 00:24:12;;;;;;;7.80;5.00;;;;;;;;;;685787;28;1859;-67
2024/02/01 00:24:32;;;;;;;7.33;5.10;;;;;;;;;;687125;28;814;-66
2024/02/01 00:24:53;;;;;;;8.70;5.18;;;;;;;;;;686308;28;4567;-66
2024/02/01 00:25:13;;;;;;;8.43;5.30;;;;;;;;;;685704;28;1759;-68
2024/02/01 00:25:34;;;;;;;7.78;5.35;;;;;;;;;;687408;28;873;-67
2024/02/01 00:25:54;;;;;;;10.53;5.43;;;;;;;;;;686667;28;774;-65
2024/02/01 00:26:14;;;;;;;8.33;5.10;;;;;;;;;;685925;28;1462;-65
2024/02/01 00:26:35;;;;;;;9.70;5.25;;;;;;;;;;686665;28;1400;-64
2024/02/01 00:26:55;;;;;;;11.53;5.37;;;;;;;;;;686533;28;846;-66
2024/02/01 00:27:15;;;;;;;8.60;5.10;;;;;;;;;;685666;28;1864;-66
2024/02/01 00:27:35;;;;;;;7.67;5.00;;;;;;;;;;687183;28;929;-68
2024/02/01 00:27:56;;;;;;;8.05;5.20;;;;;;;;;;686294;28;4897;-66
2024/02/01 00:28:17;;;;;;;10.80;5.67;;;;;;;;;;686105;28;1708;-65
2024/02/01 00:28:37;;;;;;;8.27;5.40;;;;;;;;;;684732;28;862;-65
2024/02/01 00:28:57;;;;;;;8.93;5.30;;;;;;;;;;687073;28;930;-64
2024/02/01 00:29:18;;;;;;;8.07;5.18;;;;;;;;;;686182;28;979;-64
2024/02/01 00:29:38;;;;;;;8.50;5.10;;;;;;;;;;686828;28;1449;-67
2024/02/01 00:30:02;;;;;;;8.77;4.95;;;;;;;;;;685848;28;2700;-66
2024/02/01 00:30:23;;;;;;;8.85;5.18;;;;;;;;;;687324;28;826;-67
2024/02/01 00:30:43;;;;;;;8.48;5.10;;;;;;;;;;687380;28;846;-67
2024/02/01 00:31:04;;;;;;;8.93;5.40;;;;;;;;;;685738;28;4240;-66
2024/02/01 00:31:24;;;;;;;8.70;5.20;;;;;;;;;;685737;28;1503;-66
2024/02/01 00:31:44;;;;;;;8.17;5.13;;;;;;;;;;686775;28;991;-66
2024/02/01 00:32:05;;;;;;;8.83;5.30;;;;;;;;;;686300;28;2438;-65
2024/02/01 00:32:25;;;;;;;11.67;5.30;;;;;;;;;;690350;28;857;-66
2024/02/01 00:32:45;;;;;;;9.40;5.13;;;;;;;;;;689842;28;1298;-68
2024/02/01 00:33:06;;;;;;;9.67;5.17;;;;;;;;;;686139;28;2589;-66
2024/02/01 00:33:26;;;;;;;8.03;4.90;;;;;;;;;;681932;29;1139;-64
2024/02/01 00:33:46;;;;;;;7.80;5.00;;;;;;;;;;681904;29;743;-66
2024/02/01 00:34:06;;;;;;;7.67;5.20;;;;;;;;;;680109;28;4375;-66
2024/02/01 00:34:29;;;;;;;9.60;5.40;;;;;;;;;;682005;29;897;-66
2024/02/01 00:34:50;;;;;;;9.48;5.47;;;;;;;;;;682389;28;973;-66
2024/02/01 00:35:10;;;;;;;8.20;5.00;;;;;;;;;;684509;28;2482;-65
2024/02/01 00:35:31;;;;;;;8.23;4.63;;;;;;;;;;685940;28;1328;-66
2024/02/01 00:35:51;;;;;;;8.23;5.20;;;;;;;;;;687162;28;1345;-66
2024/02/01 00:36:11;;;;;;;9.10;5.33;;;;;;;;;;686619;28;1565;-66
2024/02/01 00:36:32;;;;;;;9.20;5.10;;;;;;;;;;687742;28;905;-65
2024/02/01 00:36:52;;;;;;;8.57;5.00;;;;;;;;;;686991;28;4368;-64
2024/02/01 00:37:12;;;;;;;8.07;4.90;;;;;;;;;;686165;28;1771;-65
2024/02/01 00:37:33;;;;;;;7.65;5.30;;;;;;;;;;687379;28;1109;-65
2024/02/01 00:37:53;;;;;;;9.03;5.53;;;;;;;;;;687170;28;953;-64
2024/02/01 00:38:13;;;;;;;6.88;4.82;;;;;;;;;;686912;28;2362;-66
2024/02/01 00:38:35;;;;;;;7.77;4.60;;;;;;;;;;687460;28;873;-65
2024/02/01 00:38:55;;;;;;;9.02;5.05;;;;;;;;;;687331;28;1436;-64
2024/02/01 00:39:16;;;;;;;8.93;5.13;;;;;;;;;;686695;28;1994;-64
2024/02/01 00:39:36;;;;;;;9.83;5.30;;;;;;;;;;687965;28;865;-65
2024/02/01 00:39:56;;;;;;;10.18;5.30;;;;;;;;;;686441;28;4788;-66
2024/02/01 00:40:16;;;;;;;8.00;5.30;;;;;;;;;;686514;28;1817;-66
2024/02/01 00:40:38;;;;;;;7.93;5.05;;;;;;;;;;687443;28;1278;-66
2024/02/01 00:40:58;;;;;;;8.20;5.10;;;;;;;;;;686784;28;1226;-65
2024/02/01 00:41:19;;;;;;;8.83;5.03;;;;;;;;;;684060;28;1668;-65
2024/02/01 00:41:39;;;;;;;9.73;5.17;;;;;;;;;;685025;28;909;-67
2024/02/01 00:41:59;;;;;;;8.80;5.20;;;;;;;;;;683158;28;1879;-68
2024/02/01 00:42:20;;;;;;;8.33;5.23;;;;;;;;;;682046;29;1930;-69
2024/02/01 00:42:40;;;;;;;8.83;5.03;;;;;;;;;;682098;28;1401;-68
2024/02/01 00:43:00;;;;;;;8.57;5.03;;;;;;;;;;681938;28;4266;-64
2024/02/01 00:43:21;;;;;;;7.88;5.10;;;;;;;;;;684964;28;807;-65
2024/02/01 00:43:42;;;;;;;9.07;5.40;;;;;;;;;;684949;28;1825;-66
2024/02/01 00:44:03;;;;;;;9.75;5.32;;;;;;;;;;683330;28;3876;-67
2024/02/01 00:44:23;;;;;;;9.10;5.40;;;;;;;;;;687475;28;1539;-67
2024/02/01 00:44:43;;;;;;;9.13;5.80;;;;;;;;;;688570;28;795;-65
2024/02/01 00:45:04;;;;;;;7.87;5.50;;;;;;;;;;686838;28;1116;-65
2024/02/01 00:45:24;;;;;;;8.85;5.43;;;;;;;;;;687322;28;1899;-65
2024/02/01 00:45:45;;;;;;;9.97;5.80;;;;;;;;;;687703;28;971;-65
2024/02/01 00:46:05;;;;;;;8.02;5.40;;;;;;;;;;685329;28;4366;-64
2024/02/01 00:46:25;;;;;;;9.17;5.10;;;;;;;;;;687417;28;816;-66
2024/02/01 00:46:46;;;;;;;9.07;5.17;;;;;;;;;;686945;28;1292;-67
2024/02/01 00:47:09;;;;;;;9.10;5.17;;;;;;;;;;683383;28;1793;-66
2024/02/01 00:47:29;;;;;;;8.10;5.20;;;;;;;;;;686558;28;1380;-65
2024/02/01 00:47:50;;;;;;;8.63;5.20;;;;;;;;;;685290;28;1156;-66
2024/02/01 00:48:10;;;;;;;8.23;5.17;;;;;;;;;;685882;28;985;-67
2024/02/01 00:48:30;;;;;;;8.63;5.60;;;;;;;;;;687081;28;1342;-67
2024/02/01 00:48:51;;;;;;;10.05;5.75;;;;;;;;;;686027;28;4422;-66
2024/02/01 00:49:12;;;;;;;9.23;5.20;;;;;;;;;;687307;28;1926;-65
2024/02/01 00:49:32;;;;;;;8.68;5.10;;;;;;;;;;687070;28;965;-67
2024/02/01 00:49:53;;;;;;;8.23;5.60;;;;;;;;;;687445;28;885;-67
2024/02/01 00:50:13;;;;;;;7.60;5.47;;;;;;;;;;686157;28;1610;-67
2024/02/01 00:50:33;;;;;;;8.32;5.10;;;;;;;;;;686708;28;3525;-65
2024/02/01 00:50:54;;;;;;;9.77;5.00;;;;;;;;;;684120;28;4272;-67
2024/02/01 00:51:14;;;;;;;9.63;5.57;;;;;;;;;;683102;28;1843;-65
2024/02/01 00:51:34;;;;;;;7.47;5.23;;;;;;;;;;684837;28;873;-67
2024/02/01 00:51:55;;;;;;;8.20;5.40;;;;;;;;;;686743;28;4408;-64
2024/02/01 00:52:15;;;;;;;8.32;5.35;;;;;;;;;;683111;28;2381;-65
2024/02/01 00:52:35;;;;;;;7.70;5.40;;;;;;;;;;684376;28;1347;-64
2024/02/01 00:52:56;;;;;;;9.83;5.37;;;;;;;;;;687515;28;886;-66
2024/02/01 00:53:16;;;;;;;10.07;5.25;;;;;;;;;;686331;28;1533;-65
2024/02/01 00:53:36;;;;;;;9.00;5.60;;;;;;;;;;686932;28;1259;-67
2024/02/01 00:53:57;;;;;;;8.27;5.40;;;;;;;;;;690186;28;770;-65
2024/02/01 00:54:17;;;;;;;8.80;5.43;;;;;;;;;;691598;28;2360;-66
2024/02/01 00:54:37;;;;;;;9.70;6.00;;;;;;;;;;692610;28;813;-66
2024/02/01 00:54:58;;;;;;;9.95;5.38;;;;;;;;;;692385;28;4299;-67
2024/02/01 00:55:18;;;;;;;8.77;5.37;;;;;;;;;;688330;28;1227;-67
2024/02/01 00:55:40;;;;;;;8.30;5.23;;;;;;;;;;689932;28;833;-65
2024/02/01 00:56:00;;;;;;;9.55;5.47;;;;;;;;;;687096;28;1255;-66
2024/02/01 00:56:20;;;;;;;8.85;4.93;;;;;;;;;;687463;28;862;-65
2024/02/01 00:56:41;;;;;;;8.37;5.40;;;;;;;;;;686993;28;916;-67
2024/02/01 00:57:01;;;;;;;8.80;5.00;;;;;;;;;;685985;28;2715;-66
2024/02/01 00:57:21;;;;;;;8.75;5.13;;;;;;;;;;687770;28;917;-67
2024/02/01 00:57:41;;;;;;;9.07;5.30;;;;;;;;;;687675;28;1376;-67
2024/02/01 00:58:02;;;;;;;8.00;5.40;;;;;;;;;;685675;28;4256;-67
2024/02/01 00:58:22;;;;;;;7.70;5.50;;;;;;;;;;687451;28;1302;-68
2024/02/01 00:58:42;;;;;;;8.93;5.40;;;;;;;;;;687369;28;929;-65
2024/02/01 00:59:03;;;;;;;9.93;5.40;;;;;;;;;;686629;28;1954;-67
2024/02/01 00:59:24;;;;;;;10.25;5.60;;;;;;;;;;687298;28;1003;-66
2024/02/01 00:59:44;;;;;;;9.88;5.50;;;;;;;;;;687806;28;936;-66
2024/02/01 01:00:04;;;;;;;8.93;5.13;;;;;;;;;;686375;28;1219;-68
2024/02/01 01:00:25;;;;;;;8.68;5.30;;;;;;;;;;687902;28;806;-64
2024/02/01 01:00:46;;;;;;;8.87;5.17;;;;;;;;;;687159;28;949;-64
2024/02/01 01:01:06;;;;;;;9.38;5.35;;;;;;;;;;685892;28;4455;-64
2024/02/01 01:01:26;;;;;;;9.67;5.10;;;;;;;;;;687304;28;912;-64
2024/02/01 01:01:46;;;;;;;8.10;4.90;;;;;;;;;;687461;28;1489;-64
2024/02/01 01:02:07;;;;;;;9.35;5.47;;;;;;;;;;686267;28;980;-65
2024/02/01 01:02:27;;;;;;;11.27;5.87;;;;;;;;;;687618;28;1915;-64
2024/02/01 01:02:47;;;;;;;9.37;5.50;;;;;;;;;;687363;28;1213;-63
2024/02/01 01:03:07;;;;;;;9.30;5.30;;;;;;;;;;684794;28;882;-66
2024/02/01 01:03:28;;;;;;;9.97;5.20;;;;;;;;;;687269;28;1438;-67
2024/02/01 01:03:48;;;;;;;10.17;5.57;;;;;;;;;;687347;28;4380;-65
2024/02/01 01:04:08;;;;;;;11.70;5.72;;;;;;;;;;686555;28;867;-64
2024/02/01 01:04:29;;;;;;;8.37;5.30;;;;;;;;;;687216;28;5082;-65
2024/02/01 01:04:49;;;;;;;8.32;5.40;;;;;;;;;;686623;28;1550;-65
2024/02/01 01:05:09;;;;;;;9.43;5.50;;;;;;;;;;685737;28;1009;-62
2024/02/01 01:05:30;;;;;;;8.47;5.47;;;;;;;;;;687606;28;960;-64
2024/02/01 01:05:50;;;;;;;8.50;5.60;;;;;;;;;;684831;28;1252;-64
2024/02/01 01:06:10;;;;;;;9.63;5.70;;;;;;;;;;683348;28;1069;-64
2024/02/01 01:06:31;;;;;;;10.70;5.67;;;;;;;;;;683419;28;1254;-65
2024/02/01 01:06:51;;;;;;;8.75;5.47;;;;;;;;;;686839;28;4348;-64
2024/02/01 01:07:12;;;;;;;8.65;5.60;;;;;;;;;;686320;28;1117;-64
2024/02/01 01:07:33;;;;;;;10.13;6.10;;;;;;;;;;679233;29;1406;-64
2024/02/01 01:07:53;;;;;;;10.82;5.90;;;;;;;;;;681926;29;989;-63
2024/02/01 01:08:13;;;;;;;11.73;5.77;;;;;;;;;;681071;28;1192;-65
2024/02/01 01:08:35;;;;;;;10.27;5.70;;;;;;;;;;684640;28;850;-66
2024/02/01 01:08:56;;;;;;;8.55;5.28;;;;;;;;;;684218;28;794;-65
2024/02/01 01:09:16;;;;;;;9.47;5.40;;;;;;;;;;682491;28;1117;-64
2024/02/01 01:09:36;;;;;;;9.85;5.43;;;;;;;;;;690645;28;1333;-65
2024/02/01 01:09:56;;;;;;;10.13;5.90;;;;;;;;;;690841;28;4783;-64
2024/02/01 01:10:17;;;;;;;9.70;5.90;;;;;;;;;;688823;28;1168;-66
2024/02/01 01:10:37;;;;;;;9.02;5.45;;;;;;;;;;688521;28;1000;-65
2024/02/01 01:10:57;;;;;;;9.70;5.30;;;;;;;;;;687538;28;791;-63
2024/02/01 01:11:17;;;;;;;10.07;5.13;;;;;;;;;;688210;28;1124;-64
2024/02/01 01:11:38;;;;;;;9.57;5.30;;;;;;;;;;689401;28;956;-65
2024/02/01 01:11:58;;;;;;;8.60;5.43;;;;;;;;;;687505;28;798;-64
2024/02/01 01:12:19;;;;;;;9.30;5.23;;;;;;;;;;686861;28;1241;-66
2024/02/01 01:12:40;;;;;;;10.60;5.55;;;;;;;;;;687038;28;830;-64
2024/02/01 01:13:00;;;;;;;10.02;5.50;;;;;;;;;;686130;28;4341;-66
2024/02/01 01:13:21;;;;;;;9.50;5.60;;;;;;;;;;684974;28;1043;-65
2024/02/01 01:13:41;;;;;;;9.43;5.73;;;;;;;;;;685093;28;866;-63
2024/02/01 01:14:01;;;;;;;8.70;5.68;;;;;;;;;;686542;28;976;-66
2024/02/01 01:14:22;;;;;;;8.07;5.60;;;;;;;;;;686736;28;1626;-66
2024/02/01 01:14:42;;;;;;;7.67;5.30;;;;;;;;;;689335;28;1369;-66
2024/02/01 01:15:02;;;;;;;8.67;5.53;;;;;;;;;;689310;28;915;-66
2024/02/01 01:15:23;;;;;;;8.43;5.35;;;;;;;;;;689984;28;920;-66
2024/02/01 01:15:43;;;;;;;7.97;5.27;;;;;;;;;;689848;28;762;-66
2024/02/01 01:16:03;;;;;;;9.32;5.43;;;;;;;;;;685719;28;4318;-66
2024/02/01 01:16:25;;;;;;;8.13;5.17;;;;;;;;;;687463;28;1074;-66
2024/02/01 01:16:45;;;;;;;7.45;5.32;;;;;;;;;;687243;28;1008;-66
2024/02/01 01:17:06;;;;;;;9.40;5.50;;;;;;;;;;686350;28;1022;-67
2024/02/01 01:17:26;;;;;;;8.55;5.30;;;;;;;;;;684183;28;973;-67
2024/02/01 01:17:46;;;;;;;9.47;5.90;;;;;;;;;;684657;28;1231;-69
2024/02/01 01:18:07;;;;;;;9.87;5.67;;;;;;;;;;686350;28;1167;-70
2024/02/01 01:18:27;;;;;;;8.48;5.50;;;;;;;;;;687564;28;850;-70
2024/02/01 01:18:48;;;;;;;8.35;5.55;;;;;;;;;;686471;28;4610;-69
2024/02/01 01:19:08;;;;;;;9.17;5.67;;;;;;;;;;686830;28;900;-70
2024/02/01 01:19:28;;;;;;;9.97;5.90;;;;;;;;;;687305;28;1326;-69
2024/02/01 01:19:50;;;;;;;9.13;6.13;;;;;;;;;;687339;28;1051;-70
2024/02/01 01:20:10;;;;;;;8.50;6.10;;;;;;;;;;686179;28;976;-71
2024/02/01 01:20:30;;;;;;;9.87;6.10;;;;;;;;;;687373;28;866;-69
2024/02/01 01:20:51;;;;;;;11.00;6.37;;;;;;;;;;687279;28;1259;-70
2024/02/01 01:21:12;;;;;;;9.97;6.40;;;;;;;;;;685448;28;1328;-71
2024/02/01 01:21:32;;;;;;;8.93;5.82;;;;;;;;;;689049;28;982;-70
2024/02/01 01:21:53;;;;;;;9.50;5.93;;;;;;;;;;686800;28;4337;-71
2024/02/01 01:22:14;;;;;;;9.23;6.00;;;;;;;;;;685784;28;1910;-72
2024/02/01 01:22:34;;;;;;;10.85;6.28;;;;;;;;;;684799;28;1255;-72
2024/02/01 01:22:55;;;;;;;9.63;5.93;;;;;;;;;;681584;29;1234;-71
2024/02/01 01:23:15;;;;;;;8.70;6.10;;;;;;;;;;681037;29;1035;-73
2024/02/01 01:23:35;;;;;;;11.65;6.38;;;;;;;;;;681989;28;906;-72
2024/02/01 01:23:55;;;;;;;11.97;6.50;;;;;;;;;;684762;28;1408;-73
2024/02/01 01:24:15;;;;;;;10.63;6.40;;;;;;;;;;683298;28;1271;-72
2024/02/01 01:24:36;;;;;;;9.73;6.00;;;;;;;;;;687362;28;1055;-73
2024/02/01 01:24:56;;;;;;;9.97;6.13;;;;;;;;;;686892;28;4308;-73
2024/02/01 01:25:16;;;;;;;11.00;6.20;;;;;;;;;;686251;28;1231;-72
2024/02/01 01:25:37;;;;;;;10.57;6.43;;;;;;;;;;686868;28;1099;-73
2024/02/01 01:25:57;;;;;;;9.53;6.13;;;;;;;;;;684409;28;1418;-73
2024/02/01 01:26:21;;;;;;;9.73;6.00;;;;;;;;;;682185;28;1256;-72
2024/02/01 01:26:41;;;;;;;12.60;6.47;;;;;;;;;;683592;28;1111;-71
2024/02/01 01:27:03;;;;;;;12.55;6.50;;;;;;;;;;684536;28;1407;-71
2024/02/01 01:27:23;;;;;;;10.65;6.38;;;;;;;;;;683096;28;1235;-70
2024/02/01 01:27:43;;;;;;;9.67;6.33;;;;;;;;;;685299;28;794;-70
2024/02/01 01:28:03;;;;;;;10.47;7.07;;;;;;;;;;683006;28;4565;-71
2024/02/01 01:28:24;;;;;;;10.23;6.57;;;;;;;;;;683200;28;949;-71
2024/02/01 01:28:44;;;;;;;9.30;6.40;;;;;;;;;;683562;28;1394;-71
2024/02/01 01:29:04;;;;;;;10.65;6.78;;;;;;;;;;683363;28;1366;-70
2024/02/01 01:29:24;;;;;;;11.33;6.90;;;;;;;;;;684298;28;1123;-70
2024/02/01 01:29:45;;;;;;;11.43;6.67;;;;;;;;;;679903;29;1311;-70
2024/02/01 01:30:05;;;;;;;11.75;6.80;;;;;;;;;;680918;28;1284;-69
2024/02/01 01:30:25;;;;;;;11.60;6.87;;;;;;;;;;681522;29;1300;-69
2024/02/01 01:30:46;;;;;;;14.17;7.13;;;;;;;;;;681741;28;1335;-69
2024/02/01 01:31:06;;;;;;;11.02;6.50;;;;;;;;;;683062;28;4224;-69
2024/02/01 01:31:26;;;;;;;10.67;6.77;;;;;;;;;;683138;28;941;-70
2024/02/01 01:31:46;;;;;;;11.77;7.00;;;;;;;;;;687279;28;1140;-69
2024/02/01 01:32:07;;;;;;;10.60;6.25;;;;;;;;;;686072;28;1053;-69
2024/02/01 01:32:27;;;;;;;10.60;6.10;;;;;;;;;;687222;28;952;-68
2024/02/01 01:32:47;;;;;;;11.20;6.40;;;;;;;;;;689724;28;1251;-68
2024/02/01 01:33:07;;;;;;;12.15;6.75;;;;;;;;;;688481;28;1062;-68
2024/02/01 01:33:28;;;;;;;12.10;7.07;;;;;;;;;;689499;28;1023;-70
2024/02/01 01:33:48;;;;;;;10.90;6.67;;;;;;;;;;688919;28;4380;-69
2024/02/01 01:34:08;;;;;;;10.25;6.88;;;;;;;;;;685669;28;1393;-70
2024/02/01 01:34:28;;;;;;;10.47;7.10;;;;;;;;;;687451;28;882;-69
2024/02/01 01:34:49;;;;;;;10.03;6.80;;;;;;;;;;683261;28;798;-69
2024/02/01 01:35:09;;;;;;;11.13;6.97;;;;;;;;;;680147;29;1427;-69
2024/02/01 01:35:29;;;;;;;11.10;7.10;;;;;;;;;;680911;29;1318;-69
2024/02/01 01:35:49;;;;;;;10.87;6.77;;;;;;;;;;683589;28;1021;-68
2024/02/01 01:36:10;;;;;;;11.10;6.67;;;;;;;;;;683469;28;1068;-69
2024/02/01 01:36:30;;;;;;;10.98;6.70;;;;;;;;;;686144;28;1158;-70
2024/02/01 01:36:50;;;;;;;11.87;7.03;;;;;;;;;;687036;28;5001;-70
2024/02/01 01:37:11;;;;;;;11.90;7.63;;;;;;;;;;686226;28;1290;-70
2024/02/01 01:37:32;;;;;;;10.75;7.00;;;;;;;;;;690072;28;1065;-69
2024/02/01 01:37:53;;;;;;;11.60;7.63;;;;;;;;;;689912;28;972;-69
2024/02/01 01:38:13;;;;;;;12.57;7.70;;;;;;;;;;688278;28;942;-69
2024/02/01 01:38:33;;;;;;;12.03;7.40;;;;;;;;;;690199;28;790;-69
2024/02/01 01:38:55;;;;;;;12.23;7.50;;;;;;;;;;689771;28;1330;-70
2024/02/01 01:39:15;;;;;;;11.75;7.80;;;;;;;;;;689346;28;1210;-70
2024/02/01 01:39:35;;;;;;;11.63;7.45;;;;;;;;;;687530;28;802;-69
2024/02/01 01:39:56;;;;;;;12.23;7.63;;;;;;;;;;686286;28;4364;-69
2024/02/01 01:40:16;;;;;;;11.50;7.70;;;;;;;;;;686117;28;1409;-69
2024/02/01 01:40:36;;;;;;;12.07;7.63;;;;;;;;;;687165;28;1365;-69
2024/02/01 01:40:57;;;;;;;11.07;7.28;;;;;;;;;;686489;28;1143;-70
2024/02/01 01:41:17;;;;;;;11.23;7.50;;;;;;;;;;685417;28;1017;-70
2024/02/01 01:41:42;;;;;;;11.77;7.85;;;;;;;;;;687306;28;798;-73
2024/02/01 01:42:03;;;;;;;12.65;7.90;;;;;;;;;;685824;28;1210;-71
2024/02/01 01:42:23;;;;;;;12.73;7.50;;;;;;;;;;685916;28;1977;-70
2024/02/01 01:42:44;;;;;;;12.95;8.02;;;;;;;;;;687670;28;858;-70
2024/02/01 01:43:04;;;;;;;13.32;8.10;;;;;;;;;;684848;28;4316;-70
2024/02/01 01:43:25;;;;;;;11.87;7.57;;;;;;;;;;687563;28;968;-71
2024/02/01 01:43:45;;;;;;;14.45;8.27;;;;;;;;;;687423;28;1297;-71
2024/02/01 01:44:06;;;;;;;13.57;8.13;;;;;;;;;;688544;28;1436;-72
2024/02/01 01:44:26;;;;;;;12.67;7.90;;;;;;;;;;690078;28;897;-72
2024/02/01 01:44:46;;;;;;;14.33;7.53;;;;;;;;;;690036;28;925;-71
2024/02/01 01:45:07;;;;;;;12.82;7.85;;;;;;;;;;688946;28;1067;-70
2024/02/01 01:45:27;;;;;;;10.93;7.53;;;;;;;;;;689880;28;1523;-70
2024/02/01 01:45:57;;;;;;;12.00;7.50;;;;;;;;;;687326;28;1370;-70
2024/02/01 01:46:17;;;;;;;12.65;7.82;;;;;;;;;;684877;28;4869;-71
2024/02/01 01:46:38;;;;;;;14.00;8.43;;;;;;;;;;686685;28;1289;-72
2024/02/01 01:46:58;;;;;;;12.55;8.10;;;;;;;;;;686645;28;4610;-71
2024/02/01 01:47:19;;;;;;;12.00;8.07;;;;;;;;;;686452;28;1007;-71
2024/02/01 01:47:39;;;;;;;12.23;7.77;;;;;;;;;;686419;28;1035;-70
2024/02/01 01:47:59;;;;;;;11.88;7.40;;;;;;;;;;684115;28;954;-70
2024/02/01 01:48:20;;;;;;;13.30;7.87;;;;;;;;;;683843;28;929;-71
2024/02/01 01:48:40;;;;;;;13.57;8.13;;;;;;;;;;686811;28;1401;-71
2024/02/01 01:49:00;;;;;;;13.00;7.63;;;;;;;;;;686853;28;4360;-71
2024/02/01 01:49:21;;;;;;;11.55;7.47;;;;;;;;;;684824;28;2371;-73
2024/02/01 01:49:41;;;;;;;12.07;7.77;;;;;;;;;;687297;28;802;-70
2024/02/01 01:50:02;;;;;;;13.47;7.40;;;;;;;;;;687487;28;865;-70
2024/02/01 01:50:22;;;;;;;13.55;7.55;;;;;;;;;;686110;28;1458;-70
2024/02/01 01:50:42;;;;;;;12.23;7.87;;;;;;;;;;689370;28;802;-70
2024/02/01 01:51:03;;;;;;;13.07;8.15;;;;;;;;;;686541;28;1374;-69
2024/02/01 01:51:23;;;;;;;11.90;8.17;;;;;;;;;;685881;28;1180;-70
2024/02/01 01:51:45;;;;;;;11.77;7.32;;;;;;;;;;687073;28;1271;-69
2024/02/01 01:52:06;;;;;;;11.55;7.43;;;;;;;;;;685570;28;4413;-68
2024/02/01 01:52:27;;;;;;;14.30;7.85;;;;;;;;;;687284;28;869;-69
2024/02/01 01:52:48;;;;;;;11.95;7.70;;;;;;;;;;687235;28;1274;-70
2024/02/01 01:53:08;;;;;;;11.63;7.90;;;;;;;;;;686646;28;2009;-69
2024/02/01 01:53:29;;;;;;;11.23;7.83;;;;;;;;;;687116;28;1381;-70
2024/02/01 01:53:50;;;;;;;11.50;7.55;;;;;;;;;;687478;28;843;-70
2024/02/01 01:54:11;;;;;;;11.30;7.47;;;;;;;;;;688984;28;1749;-69
2024/02/01 01:54:32;;;;;;;11.90;7.57;;;;;;;;;;689825;28;1350;-70
2024/02/01 01:54:52;;;;;;;13.20;7.80;;;;;;;;;;688708;28;5103;-70
2024/02/01 01:55:13;;;;;;;11.10;7.63;;;;;;;;;;686169;28;1065;-70
2024/02/01 01:55:34;;;;;;;11.27;7.38;;;;;;;;;;687377;28;881;-70
2024/02/01 01:55:54;;;;;;;10.90;8.10;;;;;;;;;;687244;28;742;-70
2024/02/01 01:56:15;;;;;;;11.73;7.70;;;;;;;;;;685927;28;948;-71
2024/02/01 01:56:37;;;;;;;12.45;7.80;;;;;;;;;;684033;28;1236;-69
2024/02/01 01:56:58;;;;;;;11.45;7.68;;;;;;;;;;679504;29;905;-70
2024/02/01 01:57:18;;;;;;;11.70;7.60;;;;;;;;;;680781;28;1817;-71
2024/02/01 01:57:38;;;;;;;12.80;7.72;;;;;;;;;;681493;29;791;-70
2024/02/01 01:57:59;;;;;;;11.53;7.93;;;;;;;;;;680901;28;4329;-70
2024/02/01 01:58:19;;;;;;;13.10;8.07;;;;;;;;;;681410;28;1827;-70
2024/02/01 01:58:40;;;;;;;11.93;7.82;;;;;;;;;;685116;28;853;-70
2024/02/01 01:59:01;;;;;;;11.68;7.57;;;;;;;;;;689289;28;952;-70
2024/02/01 01:59:22;;;;;;;11.48;7.40;;;;;;;;;;685613;28;1826;-71
2024/02/01 01:59:43;;;;;;;13.13;7.82;;;;;;;;;;686311;28;1121;-71
2024/02/01 02:00:04;;;;;;;12.77;7.43;;;;;;;;;;687163;28;1003;-71
2024/02/01 02:00:26;;;;;;;12.68;7.60;;;;;;;;;;685993;28;1959;-70
2024/02/01 02:00:47;;;;;;;12.95;8.02;;;;;;;;;;687313;28;917;-70
2024/02/01 02:01:08;;;;;;;13.25;7.95;;;;;;;;;;685147;28;4486;-71
2024/02/01 02:01:28;;;;;;;12.77;7.65;;;;;;;;;;686855;28;1263;-71
2024/02/01 02:01:49;;;;;;;13.37;7.27;;;;;;;;;;684863;28;1340;-70
2024/02/01 02:02:10;;;;;;;12.52;8.00;;;;;;;;;;686196;28;1041;-70
2024/02/01 02:02:31;;;;;;;11.93;8.15;;;;;;;;;;690003;28;1911;-71
2024/02/01 02:02:51;;;;;;;11.82;8.05;;;;;;;;;;689736;28;1434;-71
2024/02/01 02:03:12;;;;;;;12.38;7.88;;;;;;;;;;688196;28;2321;-71
2024/02/01 02:03:35;;;;;;;11.97;7.73;;;;;;;;;;690564;28;917;-71
2024/02/01 02:03:57;;;;;;;10.20;7.43;;;;;;;;;;692015;28;4259;-71
2024/02/01 02:04:17;;;;;;;11.70;7.50;;;;;;;;;;687550;28;1876;-71
2024/02/01 02:04:38;;;;;;;11.83;7.70;;;;;;;;;;683619;28;1356;-70
2024/02/01 02:04:58;;;;;;;12.43;7.70;;;;;;;;;;682044;29;905;-70
2024/02/01 02:05:19;;;;;;;10.45;7.75;;;;;;;;;;677998;29;1981;-71
2024/02/01 02:05:40;;;;;;;10.40;7.63;;;;;;;;;;682056;29;905;-70
2024/02/01 02:06:00;;;;;;;12.23;7.73;;;;;;;;;;682049;28;928;-70
2024/02/01 02:06:21;;;;;;;10.38;7.68;;;;;;;;;;683598;28;1151;-70
2024/02/01 02:06:42;;;;;;;10.82;7.75;;;;;;;;;;685009;28;909;-70
2024/02/01 02:07:02;;;;;;;11.75;7.78;;;;;;;;;;687280;28;4425;-69